Time;durP1;ratioP1;P1;durP2;ratioP2;P2;SDS_P1;SDS_P2;PMS_P1;PMS_P2;Temp;Humidity;BMP_temperature;BMP_pressure;BME280_temperature;BME280_humidity;BME280_pressure;Samples;Min_cycle;Max_cycle;Signal;HPM_P1;HPM_P2
2021/09/15 00:01:05;;;;;;;11.90;6.10;;;19.90;99.90;;;;;;4868318;29;20036;-93
2021/09/15 00:03:35;;;;;;;11.30;6.47;;;19.90;99.90;;;;;;4869131;29;20105;-93
2021/09/15 00:06:02;;;;;;;15.00;6.82;;;19.80;99.90;;;;;;4869234;29;20339;-93
2021/09/15 00:08:27;;;;;;;12.50;6.63;;;19.80;99.90;;;;;;4870186;29;20022;-93
2021/09/15 00:10:53;;;;;;;12.00;6.50;;;19.80;99.90;;;;;;4868629;29;20051;-93
2021/09/15 00:13:19;;;;;;;12.88;6.65;;;19.80;99.90;;;;;;4854183;29;20049;-93
2021/09/15 00:15:45;;;;;;;14.52;6.47;;;19.80;99.90;;;;;;4869652;29;20029;-93
2021/09/15 00:18:10;;;;;;;10.60;6.30;;;19.80;99.90;;;;;;4882298;29;20085;-93
2021/09/15 00:20:36;;;;;;;13.63;6.10;;;19.70;99.90;;;;;;4869205;29;20040;-93
2021/09/15 00:23:02;;;;;;;14.52;6.68;;;19.70;99.90;;;;;;4863892;29;20263;-93
2021/09/15 00:25:28;;;;;;;11.45;6.57;;;19.70;99.90;;;;;;4869402;29;20026;-92
2021/09/15 00:27:54;;;;;;;15.45;6.97;;;19.60;99.90;;;;;;4869025;29;20029;-93
2021/09/15 00:30:19;;;;;;;12.02;6.70;;;19.60;99.90;;;;;;4865870;29;20057;-93
2021/09/15 00:32:45;;;;;;;11.90;6.30;;;19.60;99.90;;;;;;4868862;29;20246;-93
2021/09/15 00:35:11;;;;;;;9.20;6.22;;;19.60;99.90;;;;;;4868691;29;20213;-92
2021/09/15 00:37:38;;;;;;;12.13;6.30;;;19.60;99.90;;;;;;4870467;29;20032;-93
2021/09/15 00:40:06;;;;;;;10.85;6.60;;;19.60;99.90;;;;;;4867943;29;20028;-93
2021/09/15 00:42:32;;;;;;;12.07;7.00;;;19.60;99.90;;;;;;4867520;29;20314;-93
2021/09/15 00:44:58;;;;;;;12.65;6.68;;;19.60;99.90;;;;;;4867438;29;20086;-93
2021/09/15 00:47:24;;;;;;;13.43;6.75;;;19.60;99.90;;;;;;4867674;29;20025;-93
2021/09/15 00:49:50;;;;;;;10.63;6.03;;;19.60;99.90;;;;;;4869165;29;20195;-93
2021/09/15 00:52:15;;;;;;;10.57;6.22;;;19.60;99.90;;;;;;4869445;29;20044;-93
2021/09/15 00:54:41;;;;;;;14.48;5.75;;;19.60;99.90;;;;;;4866460;29;20045;-94
2021/09/15 00:57:07;;;;;;;15.07;6.45;;;19.50;99.90;;;;;;4868520;29;20021;-94
2021/09/15 00:59:33;;;;;;;14.98;7.53;;;19.50;99.90;;;;;;4865955;29;20039;-96
2021/09/15 01:01:59;;;;;;;9.27;6.10;;;19.50;99.90;;;;;;4868319;29;20101;-94
2021/09/15 01:04:24;;;;;;;9.45;5.70;;;19.50;99.90;;;;;;4867785;29;20072;-93
2021/09/15 01:06:50;;;;;;;8.05;5.75;;;19.50;99.90;;;;;;4868481;29;20128;-93
2021/09/15 01:09:17;;;;;;;10.23;6.07;;;19.40;99.90;;;;;;4867807;29;20030;-93
2021/09/15 01:11:43;;;;;;;12.80;6.10;;;19.50;99.90;;;;;;4868769;29;20299;-94
2021/09/15 01:14:10;;;;;;;12.75;6.15;;;19.40;99.90;;;;;;4868246;29;20045;-93
2021/09/15 01:16:55;;;;;;;10.18;6.43;;;19.40;99.90;;;;;;4869085;29;20025;-93
2021/09/15 01:19:22;;;;;;;10.38;6.45;;;19.40;99.90;;;;;;4863600;29;20037;-93
2021/09/15 01:21:48;;;;;;;12.63;6.50;;;19.40;99.90;;;;;;4874607;29;20021;-93
2021/09/15 01:24:14;;;;;;;10.48;6.75;;;19.40;99.90;;;;;;4861013;29;20159;-93
2021/09/15 01:26:40;;;;;;;9.18;6.18;;;19.40;99.90;;;;;;4867514;29;20022;-94
2021/09/15 01:29:15;;;;;;;13.05;7.25;;;19.40;99.90;;;;;;4862975;29;20036;-94
2021/09/15 01:31:58;;;;;;;14.35;7.55;;;19.40;99.90;;;;;;4866735;29;20025;-93
2021/09/15 01:34:24;;;;;;;13.20;8.00;;;19.40;99.90;;;;;;4867223;29;20349;-93
2021/09/15 01:36:50;;;;;;;12.82;7.90;;;19.40;99.90;;;;;;4859201;29;20022;-93
2021/09/15 01:39:16;;;;;;;12.75;8.57;;;19.40;99.90;;;;;;4858862;29;20082;-93
2021/09/15 01:41:42;;;;;;;14.75;8.80;;;19.40;99.90;;;;;;4857116;29;20491;-93
2021/09/15 01:44:08;;;;;;;11.77;7.82;;;19.40;99.90;;;;;;4858554;29;20077;-93
2021/09/15 01:46:33;;;;;;;13.82;7.85;;;19.50;99.90;;;;;;4857872;29;20050;-93
2021/09/15 01:48:59;;;;;;;14.77;7.47;;;19.50;99.90;;;;;;4856042;29;20056;-93
2021/09/15 01:51:25;;;;;;;13.07;6.82;;;19.40;99.90;;;;;;4858404;29;20030;-93
2021/09/15 01:53:51;;;;;;;11.55;6.85;;;19.50;99.90;;;;;;4858588;29;20387;-96
2021/09/15 01:56:16;;;;;;;9.63;6.43;;;19.50;99.90;;;;;;4860527;29;20029;-94
2021/09/15 01:58:42;;;;;;;12.65;6.88;;;19.60;99.90;;;;;;4860175;29;20029;-94
2021/09/15 02:01:09;;;;;;;12.48;7.03;;;19.50;99.90;;;;;;4859594;29;20053;-93
2021/09/15 02:03:34;;;;;;;10.73;6.57;;;19.60;99.90;;;;;;4858755;29;20040;-93
2021/09/15 02:06:00;;;;;;;12.70;6.97;;;19.60;99.90;;;;;;4858367;29;20116;-92
2021/09/15 02:08:26;;;;;;;12.05;7.00;;;19.60;99.90;;;;;;4858477;29;20060;-96
2021/09/15 02:10:52;;;;;;;25.45;6.85;;;19.60;99.90;;;;;;4858591;29;20033;-96
2021/09/15 02:13:18;;;;;;;10.65;7.43;;;19.60;99.90;;;;;;4858025;29;20399;-92
2021/09/15 02:15:44;;;;;;;18.17;8.00;;;19.70;99.90;;;;;;4858013;29;20030;-93
2021/09/15 02:18:10;;;;;;;13.57;7.95;;;19.70;99.90;;;;;;4846577;29;20068;-93
2021/09/15 02:20:35;;;;;;;12.60;7.97;;;19.70;99.90;;;;;;4845428;29;20045;-93
2021/09/15 02:23:02;;;;;;;13.95;7.40;;;19.80;99.90;;;;;;4856522;29;20044;-93
2021/09/15 02:25:28;;;;;;;10.95;7.38;;;19.70;99.90;;;;;;4857196;29;20073;-96
2021/09/15 02:27:54;;;;;;;14.02;8.45;;;19.70;99.90;;;;;;4843769;29;20112;-95
2021/09/15 02:30:21;;;;;;;12.27;7.75;;;19.80;99.90;;;;;;4860032;29;20108;-93
2021/09/15 02:32:47;;;;;;;15.80;8.15;;;19.80;99.90;;;;;;4860659;29;20116;-93
2021/09/15 02:35:13;;;;;;;13.98;9.07;;;19.80;99.90;;;;;;4885349;29;20056;-93
2021/09/15 02:37:39;;;;;;;23.80;11.45;;;19.80;99.90;;;;;;4872007;29;20092;-92
2021/09/15 02:40:06;;;;;;;19.15;11.77;;;19.80;99.90;;;;;;4864449;29;20029;-93
2021/09/15 02:42:32;;;;;;;16.83;10.70;;;19.70;99.90;;;;;;4898405;29;20021;-93
2021/09/15 02:44:58;;;;;;;16.40;9.10;;;19.70;99.90;;;;;;4864079;29;20025;-93
2021/09/15 02:47:24;;;;;;;14.32;9.45;;;19.70;99.90;;;;;;4854947;29;20553;-93
2021/09/15 02:49:49;;;;;;;14.07;8.70;;;19.60;99.90;;;;;;4859280;29;20033;-93
2021/09/15 02:52:15;;;;;;;16.17;10.13;;;19.70;99.90;;;;;;4845246;29;20030;-93
2021/09/15 02:54:41;;;;;;;16.33;9.65;;;19.60;99.90;;;;;;4845301;29;20037;-94
2021/09/15 02:57:07;;;;;;;18.38;9.43;;;19.60;99.90;;;;;;4847313;29;20035;-93
2021/09/15 02:59:32;;;;;;;14.85;9.18;;;19.50;99.90;;;;;;4860374;29;20029;-93
2021/09/15 03:01:58;;;;;;;18.13;8.80;;;19.60;99.90;;;;;;4860419;29;20009;-93
2021/09/15 03:04:24;;;;;;;15.25;8.32;;;19.60;99.90;;;;;;4857614;29;20062;-93
2021/09/15 03:06:51;;;;;;;17.27;9.10;;;19.50;99.90;;;;;;4857177;29;20036;-93
2021/09/15 03:09:17;;;;;;;15.95;8.50;;;19.50;99.90;;;;;;4844917;29;20022;-93
2021/09/15 03:11:42;;;;;;;14.18;8.27;;;19.50;99.90;;;;;;4845044;29;20098;-93
2021/09/15 03:14:08;;;;;;;12.90;8.93;;;19.50;99.90;;;;;;4862488;29;20049;-93
2021/09/15 03:16:34;;;;;;;13.88;8.57;;;19.40;99.90;;;;;;4863766;29;20119;-93
2021/09/15 03:18:59;;;;;;;12.93;8.40;;;19.50;99.90;;;;;;4863709;29;20032;-93
2021/09/15 03:21:25;;;;;;;12.65;8.65;;;19.40;99.90;;;;;;4863645;29;20049;-93
2021/09/15 03:23:51;;;;;;;13.95;8.40;;;19.50;99.90;;;;;;4877582;29;20108;-93
2021/09/15 03:26:16;;;;;;;11.68;7.82;;;19.50;99.90;;;;;;4863156;29;20459;-93
2021/09/15 03:28:42;;;;;;;10.43;8.18;;;19.50;99.90;;;;;;4863150;29;20025;-93
2021/09/15 03:31:08;;;;;;;15.63;7.78;;;19.50;99.90;;;;;;4858570;29;20049;-93
2021/09/15 03:33:34;;;;;;;12.43;7.30;;;19.50;99.90;;;;;;4871431;29;20455;-92
2021/09/15 03:36:01;;;;;;;13.10;7.90;;;19.50;99.90;;;;;;4863519;29;20025;-93
2021/09/15 03:38:27;;;;;;;14.43;7.57;;;19.50;99.90;;;;;;4863776;29;20084;-93
2021/09/15 03:40:52;;;;;;;13.77;7.30;;;19.50;99.90;;;;;;4879811;29;20037;-93
2021/09/15 03:43:18;;;;;;;11.90;7.25;;;19.40;99.90;;;;;;4862843;29;20072;-93
2021/09/15 03:45:44;;;;;;;11.40;7.70;;;19.40;99.90;;;;;;4850549;29;20036;-93
2021/09/15 03:48:09;;;;;;;15.95;8.32;;;19.40;99.90;;;;;;4877458;29;20056;-93
2021/09/15 03:50:35;;;;;;;14.73;9.18;;;19.40;99.90;;;;;;4852462;29;20314;-93
2021/09/15 03:53:01;;;;;;;16.10;8.80;;;19.50;99.90;;;;;;4875570;29;20406;-93
2021/09/15 03:55:26;;;;;;;13.52;8.43;;;19.50;99.90;;;;;;4879819;29;20169;-93
2021/09/15 03:57:52;;;;;;;10.90;7.70;;;19.40;99.90;;;;;;4878288;29;20510;-92
2021/09/15 04:00:18;;;;;;;17.33;9.52;;;19.40;99.90;;;;;;4865559;29;20565;-93
2021/09/15 04:02:44;;;;;;;11.02;8.52;;;19.50;99.90;;;;;;4862615;29;20029;-93
2021/09/15 04:05:09;;;;;;;11.63;8.35;;;19.50;99.90;;;;;;4862071;29;20021;-93
2021/09/15 04:07:36;;;;;;;13.27;8.80;;;19.60;99.90;;;;;;4862121;29;20521;-92
2021/09/15 04:10:02;;;;;;;16.00;8.57;;;19.60;99.90;;;;;;4859739;29;20276;-95
2021/09/15 04:12:28;;;;;;;13.55;7.93;;;19.60;99.90;;;;;;4867281;29;20056;-93
2021/09/15 04:14:54;;;;;;;11.63;8.00;;;19.60;99.90;;;;;;4861603;29;20021;-93
2021/09/15 04:17:20;;;;;;;13.10;8.35;;;19.60;99.90;;;;;;4860043;29;20053;-93
2021/09/15 04:19:45;;;;;;;14.25;8.43;;;19.60;99.90;;;;;;4860061;29;20082;-92
2021/09/15 04:22:17;;;;;;;11.48;7.72;;;19.60;99.90;;;;;;4878395;29;20065;-93
2021/09/15 04:32:59;;;;;;;11.77;7.90;;;19.60;99.90;;;;;;4870549;29;20044;-93
2021/09/15 04:35:26;;;;;;;16.23;10.27;;;19.70;99.90;;;;;;4873027;29;20120;-93
2021/09/15 04:37:51;;;;;;;15.35;9.45;;;19.60;99.90;;;;;;4861923;29;20032;-93
2021/09/15 04:40:17;;;;;;;18.25;9.85;;;19.70;99.90;;;;;;4866230;29;20033;-92
2021/09/15 04:42:43;;;;;;;16.77;10.65;;;19.70;99.90;;;;;;4864283;29;20021;-93
2021/09/15 04:45:09;;;;;;;19.52;11.70;;;19.70;99.90;;;;;;4862020;29;20123;-93
2021/09/15 04:47:35;;;;;;;17.48;11.77;;;19.70;99.90;;;;;;4861622;29;20069;-92
2021/09/15 04:50:01;;;;;;;20.52;11.38;;;19.70;99.90;;;;;;4861810;29;20033;-92
2021/09/15 04:52:27;;;;;;;16.38;10.48;;;19.70;99.90;;;;;;4861631;29;20041;-92
2021/09/15 04:54:52;;;;;;;17.90;11.20;;;19.70;99.90;;;;;;4861530;29;20088;-93
2021/09/15 04:57:18;;;;;;;17.20;11.10;;;19.80;99.90;;;;;;4849437;29;20022;-92
2021/09/15 04:59:44;;;;;;;19.90;11.48;;;19.80;99.90;;;;;;4871440;29;20053;-93
2021/09/15 05:02:10;;;;;;;19.60;11.05;;;19.90;99.90;;;;;;4869197;29;20025;-93
2021/09/15 05:04:35;;;;;;;17.80;10.30;;;20.00;99.90;;;;;;4861800;29;20513;-92
2021/09/15 05:07:01;;;;;;;12.55;9.98;;;20.00;99.90;;;;;;4878764;29;20057;-92
2021/09/15 05:09:27;;;;;;;16.38;10.18;;;20.10;99.90;;;;;;4862100;29;20044;-93
2021/09/15 05:11:53;;;;;;;15.10;10.18;;;20.20;99.90;;;;;;4861957;29;20053;-93
2021/09/15 05:14:18;;;;;;;17.10;9.68;;;20.20;99.90;;;;;;4850042;29;20451;-93
2021/09/15 05:16:44;;;;;;;19.08;10.60;;;20.20;99.90;;;;;;4871835;29;20018;-93
2021/09/15 05:19:10;;;;;;;14.85;11.02;;;20.20;99.90;;;;;;4868876;29;20025;-93
2021/09/15 05:21:35;;;;;;;16.50;10.23;;;20.30;99.90;;;;;;4846416;29;20030;-93
2021/09/15 05:24:01;;;;;;;14.40;10.13;;;20.30;99.90;;;;;;4867249;29;20040;-92
2021/09/15 05:26:28;;;;;;;18.30;9.35;;;20.30;99.90;;;;;;4860939;29;20498;-88
2021/09/15 05:28:53;;;;;;;12.48;8.80;;;20.30;99.90;;;;;;4877330;29;20053;-88
2021/09/15 05:31:19;;;;;;;15.20;8.90;;;20.30;99.90;;;;;;4860080;29;20017;-87
2021/09/15 05:33:45;;;;;;;12.13;8.18;;;20.30;99.90;;;;;;4869067;29;20515;-88
2021/09/15 05:36:10;;;;;;;12.27;8.25;;;20.30;99.90;;;;;;4864763;29;20027;-87
2021/09/15 05:38:36;;;;;;;13.52;9.23;;;20.30;99.90;;;;;;4857774;29;20034;-88
2021/09/15 05:41:02;;;;;;;15.43;9.40;;;20.30;99.90;;;;;;4857111;29;20452;-88
2021/09/15 05:43:28;;;;;;;13.20;9.77;;;20.30;99.90;;;;;;4857766;29;20057;-87
2021/09/15 05:45:53;;;;;;;17.17;9.55;;;20.30;99.90;;;;;;4857249;29;20077;-87
2021/09/15 05:48:19;;;;;;;17.80;9.85;;;20.30;99.90;;;;;;4857817;29;20025;-88
2021/09/15 05:50:45;;;;;;;17.65;9.55;;;20.30;99.90;;;;;;4857434;29;20029;-87
2021/09/15 05:53:12;;;;;;;14.18;10.20;;;20.30;99.90;;;;;;4857226;29;20044;-87
2021/09/15 05:55:38;;;;;;;16.15;9.98;;;20.30;99.90;;;;;;4857616;29;20062;-87
2021/09/15 05:58:04;;;;;;;18.73;9.20;;;20.30;99.90;;;;;;4857667;29;20068;-88
2021/09/15 06:00:29;;;;;;;14.20;9.75;;;20.30;99.90;;;;;;4857699;29;20025;-88
2021/09/15 06:02:56;;;;;;;12.75;9.73;;;20.30;99.90;;;;;;4857514;29;20166;-88
2021/09/15 06:05:22;;;;;;;16.30;9.82;;;20.30;99.90;;;;;;4856136;29;20030;-88
2021/09/15 06:07:48;;;;;;;17.35;9.05;;;20.30;99.90;;;;;;4857313;29;20040;-88
2021/09/15 06:10:13;;;;;;;19.00;10.13;;;20.20;99.90;;;;;;4858102;29;20029;-88
2021/09/15 06:12:39;;;;;;;19.63;9.80;;;20.30;99.90;;;;;;4857461;29;20077;-88
2021/09/15 06:15:05;;;;;;;14.07;8.80;;;20.30;99.90;;;;;;4856242;29;20491;-88
2021/09/15 06:17:31;;;;;;;12.55;9.25;;;20.30;99.90;;;;;;4857849;29;20112;-87
2021/09/15 06:19:56;;;;;;;13.20;9.30;;;20.20;99.90;;;;;;4861185;29;20029;-88
2021/09/15 06:22:22;;;;;;;13.05;9.80;;;20.20;99.90;;;;;;4856979;29;20124;-88
2021/09/15 06:24:53;;;;;;;11.95;9.30;;;20.20;99.90;;;;;;4857850;29;20033;-88
2021/09/15 06:27:18;;;;;;;12.73;9.38;;;20.10;99.90;;;;;;4858556;29;20021;-88
2021/09/15 06:29:44;;;;;;;16.90;9.10;;;20.10;99.90;;;;;;4861773;29;20042;-88
2021/09/15 06:32:10;;;;;;;11.18;8.93;;;20.10;99.90;;;;;;4870699;29;20050;-88
2021/09/15 06:34:36;;;;;;;11.68;9.02;;;20.10;99.90;;;;;;4865417;29;20033;-88
2021/09/15 06:37:03;;;;;;;12.52;9.15;;;20.30;99.90;;;;;;4863230;29;20402;-88
2021/09/15 06:39:28;;;;;;;15.95;10.75;;;20.30;99.90;;;;;;4859943;29;20037;-88
2021/09/15 06:41:54;;;;;;;13.52;9.43;;;20.30;99.90;;;;;;4877253;29;20032;-88
2021/09/15 06:44:20;;;;;;;10.07;8.93;;;20.40;99.90;;;;;;4876311;29;20033;-88
2021/09/15 06:46:45;;;;;;;11.23;9.32;;;20.50;99.90;;;;;;4875465;29;20037;-88
2021/09/15 06:49:11;;;;;;;15.65;9.18;;;20.60;99.90;;;;;;4874768;29;20069;-88
2021/09/15 06:51:37;;;;;;;9.98;8.90;;;20.60;99.90;;;;;;4858522;29;20420;-88
2021/09/15 06:54:02;;;;;;;9.88;8.40;;;20.60;99.90;;;;;;4870899;29;20128;-88
2021/09/15 06:56:28;;;;;;;13.82;9.32;;;20.70;99.90;;;;;;4859976;29;20071;-88
2021/09/15 06:58:54;;;;;;;12.43;8.77;;;20.80;99.90;;;;;;4859716;29;20064;-88
2021/09/15 07:01:24;;;;;;;10.48;9.23;;;20.90;99.90;;;;;;4876814;29;20236;-87
2021/09/15 07:03:50;;;;;;;13.90;8.32;;;21.00;99.90;;;;;;4876823;29;20033;-88
2021/09/15 07:06:16;;;;;;;11.73;8.55;;;21.10;99.90;;;;;;4876485;29;20049;-87
2021/09/15 07:08:42;;;;;;;12.55;9.13;;;21.20;99.90;;;;;;4859697;29;20029;-88
2021/09/15 07:11:07;;;;;;;14.10;9.05;;;21.40;99.90;;;;;;4875742;29;20108;-88
2021/09/15 07:13:33;;;;;;;9.98;7.40;;;21.50;99.90;;;;;;4862872;29;20060;-88
2021/09/15 07:15:59;;;;;;;10.00;7.82;;;21.70;99.90;;;;;;4848576;29;20030;-88
2021/09/15 07:18:28;;;;;;;9.43;7.85;;;21.80;99.90;;;;;;4875613;29;20111;-88
2021/09/15 07:20:55;;;;;;;11.90;8.30;;;21.80;99.90;;;;;;4879893;29;20027;-87
2021/09/15 07:23:20;;;;;;;11.75;7.53;;;21.80;99.90;;;;;;4862695;29;20048;-88
2021/09/15 07:25:46;;;;;;;9.52;7.40;;;21.80;99.90;;;;;;4879947;29;20025;-88
2021/09/15 07:28:12;;;;;;;8.43;7.50;;;21.80;99.90;;;;;;4879313;29;20036;-88
2021/09/15 07:30:38;;;;;;;11.07;7.35;;;21.80;99.90;;;;;;4862654;29;20052;-88
2021/09/15 07:33:03;;;;;;;10.82;7.45;;;21.80;99.90;;;;;;4879653;29;20089;-88
2021/09/15 07:35:29;;;;;;;9.63;7.75;;;21.90;99.90;;;;;;4879736;29;20413;-88
2021/09/15 07:37:55;;;;;;;11.48;8.15;;;21.90;99.90;;;;;;4879376;29;20073;-88
2021/09/15 07:40:21;;;;;;;8.63;6.85;;;21.90;99.90;;;;;;4879631;29;20040;-89
2021/09/15 07:42:47;;;;;;;8.65;7.53;;;21.90;99.90;;;;;;4879309;29;20032;-89
2021/09/15 07:45:14;;;;;;;8.70;6.57;;;22.00;99.90;;;;;;4878937;29;20104;-89
2021/09/15 07:47:41;;;;;;;11.60;8.23;;;22.00;99.90;;;;;;4879099;29;20017;-89
2021/09/15 07:50:09;;;;;;;9.27;7.07;;;22.00;99.90;;;;;;4879711;29;20398;-89
2021/09/15 07:52:35;;;;;;;9.30;7.38;;;22.10;99.90;;;;;;4878866;29;20491;-89
2021/09/15 07:55:01;;;;;;;12.30;7.72;;;22.10;99.90;;;;;;4879702;29;20068;-89
2021/09/15 07:57:27;;;;;;;9.32;6.60;;;22.10;99.90;;;;;;4861892;29;20072;-88
2021/09/15 07:59:52;;;;;;;16.88;7.40;;;22.20;99.90;;;;;;4878345;29;20461;-89
2021/09/15 08:02:18;;;;;;;8.57;6.35;;;22.30;99.90;;;;;;4878662;29;20040;-89
2021/09/15 08:04:44;;;;;;;10.50;6.80;;;22.30;99.90;;;;;;4878222;29;20025;-89
2021/09/15 08:07:09;;;;;;;10.05;6.68;;;22.30;99.90;;;;;;4878378;29;20029;-88
2021/09/15 08:09:35;;;;;;;6.20;5.60;;;22.30;99.90;;;;;;4878045;29;20577;-89
2021/09/15 08:12:01;;;;;;;6.38;5.32;;;22.50;99.90;;;;;;4878231;29;20486;-89
2021/09/15 08:14:28;;;;;;;10.30;6.20;;;22.60;99.90;;;;;;4878558;29;20052;-89
2021/09/15 08:16:54;;;;;;;8.93;5.90;;;22.70;99.90;;;;;;4878530;29;20017;-88
2021/09/15 08:19:21;;;;;;;8.63;5.65;;;22.80;99.90;;;;;;4862108;29;20516;-89
2021/09/15 08:21:47;;;;;;;8.40;5.38;;;22.90;99.90;;;;;;4878330;29;20100;-89
2021/09/15 08:24:13;;;;;;;8.45;5.18;;;23.00;99.90;;;;;;4876040;29;20108;-89
2021/09/15 08:26:39;;;;;;;7.55;4.68;;;23.20;99.90;;;;;;4874128;29;20025;-89
2021/09/15 08:29:06;;;;;;;8.55;4.50;;;23.30;99.90;;;;;;4878255;29;20538;-89
2021/09/15 08:31:31;;;;;;;7.85;4.30;;;23.10;99.90;;;;;;4878234;29;20024;-88
2021/09/15 08:33:57;;;;;;;6.50;4.45;;;23.20;99.90;;;;;;4878076;29;20056;-89
2021/09/15 08:36:23;;;;;;;6.22;4.35;;;23.20;99.90;;;;;;4878047;29;20192;-88
2021/09/15 08:38:49;;;;;;;10.18;4.60;;;23.10;99.90;;;;;;4878280;29;20187;-89
2021/09/15 08:41:15;;;;;;;8.48;4.55;;;23.10;99.90;;;;;;4876555;29;20039;-89
2021/09/15 08:43:41;;;;;;;8.05;4.57;;;23.00;99.90;;;;;;4866925;29;20032;-88
2021/09/15 08:46:14;;;;;;;5.78;4.05;;;22.70;99.90;;;;;;4877715;29;20045;-89
2021/09/15 08:48:42;;;;;;;6.53;4.50;;;22.70;99.90;;;;;;4854292;29;20069;-89
2021/09/15 08:51:13;;;;;;;9.63;4.40;;;22.50;99.90;;;;;;4871158;29;20032;-88
2021/09/15 08:53:41;;;;;;;7.07;4.72;;;22.40;99.90;;;;;;4860648;29;20037;-89
2021/09/15 08:56:07;;;;;;;9.60;5.18;;;22.30;99.90;;;;;;4874764;29;20032;-88
2021/09/15 08:58:33;;;;;;;9.00;5.20;;;22.30;99.90;;;;;;4860359;29;20124;-89
2021/09/15 09:01:14;;;;;;;7.80;4.82;;;22.20;99.90;;;;;;4877267;29;20104;-89
2021/09/15 09:03:41;;;;;;;9.73;5.22;;;22.20;99.90;;;;;;4877106;29;20495;-89
2021/09/15 09:06:11;;;;;;;8.45;5.15;;;22.00;99.90;;;;;;4867287;29;20040;-89
2021/09/15 09:08:42;;;;;;;7.78;5.40;;;22.00;99.90;;;;;;4874707;29;20294;-89
2021/09/15 09:11:08;;;;;;;10.70;4.78;;;22.00;99.90;;;;;;4877090;29;20029;-89
2021/09/15 09:13:53;;;;;;;10.30;5.13;;;22.00;99.90;;;;;;4876706;29;20418;-88
2021/09/15 09:16:21;;;;;;;9.32;5.30;;;22.10;99.90;;;;;;4877576;29;20043;-89
2021/09/15 09:18:58;;;;;;;10.35;5.35;;;22.20;99.90;;;;;;4877430;29;20033;-89
2021/09/15 09:21:27;;;;;;;7.47;4.90;;;22.30;99.90;;;;;;4877593;29;20028;-89
2021/09/15 09:23:58;;;;;;;10.00;4.72;;;22.30;99.90;;;;;;4874512;29;20030;-89
2021/09/15 09:26:44;;;;;;;7.20;5.15;;;22.40;99.90;;;;;;4867947;29;20028;-89
2021/09/15 09:29:30;;;;;;;7.40;4.68;;;22.50;99.90;;;;;;4862687;29;20029;-89
2021/09/15 09:32:16;;;;;;;6.25;3.90;;;22.80;99.90;;;;;;4876567;29;20029;-89
2021/09/15 09:34:44;;;;;;;5.90;3.97;;;23.10;99.90;;;;;;4876259;29;20052;-89
2021/09/15 09:37:18;;;;;;;7.38;4.07;;;23.40;99.90;;;;;;4859803;29;20025;-89
2021/09/15 09:39:47;;;;;;;8.10;4.43;;;23.40;99.90;;;;;;4876725;29;20105;-89
2021/09/15 09:42:22;;;;;;;6.70;3.67;;;23.60;99.90;;;;;;4876219;29;20494;-89
2021/09/15 09:45:07;;;;;;;4.25;3.42;;;23.90;99.90;;;;;;4877366;29;20391;-89
2021/09/15 09:47:35;;;;;;;6.60;3.80;;;24.00;99.90;;;;;;4875425;29;20544;-89
2021/09/15 09:50:02;;;;;;;8.02;3.55;;;24.10;99.90;;;;;;4865108;29;20036;-89
2021/09/15 09:52:28;;;;;;;6.53;3.78;;;24.20;99.90;;;;;;4876742;29;20485;-89
2021/09/15 09:55:02;;;;;;;6.88;3.30;;;24.40;99.90;;;;;;4874223;29;20041;-89
2021/09/15 09:57:28;;;;;;;6.90;3.85;;;24.50;99.90;;;;;;4856117;29;20029;-88
2021/09/15 09:59:57;;;;;;;6.32;3.63;;;24.50;99.90;;;;;;4841483;29;20460;-89
2021/09/15 10:02:24;;;;;;;10.07;4.00;;;24.50;99.90;;;;;;4858061;29;20022;-89
2021/09/15 10:04:50;;;;;;;7.88;4.40;;;24.50;99.90;;;;;;4858422;29;20383;-89
2021/09/15 10:07:17;;;;;;;5.68;3.78;;;24.60;99.90;;;;;;4860292;29;20033;-89
2021/09/15 10:09:44;;;;;;;5.18;3.60;;;24.30;99.90;;;;;;4865843;29;20040;-89
2021/09/15 10:12:11;;;;;;;7.18;3.90;;;24.30;99.90;;;;;;4868726;29;20033;-89
2021/09/15 10:14:37;;;;;;;6.20;3.72;;;24.20;99.90;;;;;;4878607;29;20033;-89
2021/09/15 10:17:10;;;;;;;10.57;4.25;;;24.30;99.90;;;;;;4872968;29;20036;-88
2021/09/15 10:19:39;;;;;;;8.68;4.05;;;24.50;99.90;;;;;;4874311;29;20025;-88
2021/09/15 10:22:07;;;;;;;8.52;4.25;;;24.60;99.90;;;;;;4874293;29;20463;-89
2021/09/15 10:24:48;;;;;;;8.57;4.22;;;24.50;99.90;;;;;;4873275;29;20040;-89
2021/09/15 10:27:18;;;;;;;6.78;3.67;;;24.80;99.90;;;;;;4874263;29;20085;-89
2021/09/15 10:29:59;;;;;;;6.50;3.28;;;24.80;99.90;;;;;;4866044;29;20054;-89
2021/09/15 10:32:39;;;;;;;62.53;19.17;;;24.90;99.90;;;;;;4889858;29;20032;-89
2021/09/15 10:35:07;;;;;;;9.23;4.32;;;24.60;99.90;;;;;;4872919;29;20045;-88
2021/09/15 10:37:33;;;;;;;10.00;5.07;;;24.40;99.90;;;;;;4873930;29;20033;-89
2021/09/15 10:40:09;;;;;;;14.50;5.80;;;24.20;99.90;;;;;;4872268;29;20402;-89
2021/09/15 10:42:48;;;;;;;14.32;5.40;;;24.10;99.90;;;;;;4873143;29;20026;-95
2021/09/15 10:45:17;;;;;;;8.63;4.20;;;24.00;99.90;;;;;;4867526;29;20033;-88
2021/09/15 10:47:48;;;;;;;6.45;3.95;;;23.90;99.90;;;;;;4859056;29;20029;-88
2021/09/15 10:50:46;;;;;;;6.30;4.03;;;23.90;99.90;;;;;;4848448;29;20030;-89
2021/09/15 10:53:15;;;;;;;8.23;4.22;;;24.00;99.90;;;;;;4849677;29;20136;-87
2021/09/15 10:55:47;;;;;;;9.35;4.57;;;24.00;99.90;;;;;;4861436;29;20120;-88
2021/09/15 10:58:15;;;;;;;8.50;5.90;;;23.80;99.90;;;;;;4860087;29;20036;-88
2021/09/15 11:00:51;;;;;;;12.30;5.35;;;23.80;99.90;;;;;;4862033;29;20255;-89
2021/09/15 11:03:24;;;;;;;12.77;6.93;;;24.10;99.90;;;;;;4861878;29;20360;-89
2021/09/15 11:05:50;;;;;;;9.82;5.78;;;24.20;99.90;;;;;;4861938;29;20384;-88
2021/09/15 11:08:41;;;;;;;9.60;6.50;;;24.40;99.90;;;;;;4874704;29;20116;-88
2021/09/15 11:11:20;;;;;;;12.90;6.30;;;24.10;99.90;;;;;;4860917;29;20025;-87
2021/09/15 11:13:46;;;;;;;15.77;6.50;;;24.00;99.90;;;;;;4861284;29;20084;-88
2021/09/15 11:16:24;;;;;;;8.27;6.43;;;23.70;99.90;;;;;;4862073;29;20519;-88
2021/09/15 11:19:09;;;;;;;11.48;6.90;;;23.70;99.90;;;;;;4859211;29;20125;-88
2021/09/15 11:21:41;;;;;;;7.90;5.20;;;24.00;99.90;;;;;;4859387;29;20046;-88
2021/09/15 11:24:12;;;;;;;8.77;5.25;;;24.20;99.90;;;;;;4868401;29;20449;-89
2021/09/15 11:26:51;;;;;;;9.82;6.30;;;24.50;99.90;;;;;;4865731;29;20059;-88
2021/09/15 11:29:52;;;;;;;11.40;5.35;;;24.40;99.90;;;;;;4863392;29;20017;-88
2021/09/15 11:32:19;;;;;;;11.35;5.07;;;24.60;99.90;;;;;;4879976;29;20025;-89
2021/09/15 11:34:48;;;;;;;10.95;5.68;;;24.70;99.90;;;;;;4880411;29;20203;-87
2021/09/15 11:37:21;;;;;;;9.23;5.72;;;24.50;99.90;;;;;;4879572;29;20081;-93
2021/09/15 11:40:01;;;;;;;9.63;6.03;;;24.50;99.90;;;;;;4880141;29;20033;-95
2021/09/15 11:42:34;;;;;;;9.30;4.88;;;24.50;99.90;;;;;;4861376;29;20469;-95
2021/09/15 11:45:17;;;;;;;7.90;5.32;;;24.70;99.90;;;;;;4856325;29;20117;-93
2021/09/15 11:47:53;;;;;;;9.32;5.25;;;24.90;99.90;;;;;;4864687;29;20048;-95
2021/09/15 11:50:23;;;;;;;10.75;4.80;;;25.20;99.90;;;;;;4863715;29;20025;-93
2021/09/15 11:52:57;;;;;;;7.03;4.13;;;25.60;99.90;;;;;;4863172;29;20033;-95
2021/09/15 11:55:23;;;;;;;8.23;4.40;;;26.00;99.90;;;;;;4856176;29;20463;-95
2021/09/15 11:57:52;;;;;;;10.25;4.93;;;26.20;99.90;;;;;;4869651;29;20169;-95
2021/09/15 12:00:18;;;;;;;8.95;5.97;;;26.00;99.90;;;;;;4860217;29;20517;-93
2021/09/15 12:02:46;;;;;;;5.45;3.47;;;25.90;99.90;;;;;;4859632;29;20045;-96
2021/09/15 12:05:12;;;;;;;9.52;3.65;;;25.80;99.90;;;;;;4845586;29;20030;-95
2021/09/15 12:07:40;;;;;;;6.63;3.28;;;25.70;99.90;;;;;;4870700;29;20029;-94
2021/09/15 12:10:08;;;;;;;7.68;3.30;;;25.90;99.90;;;;;;4862724;29;20041;-95
2021/09/15 12:12:35;;;;;;;5.22;2.55;;;26.20;99.90;;;;;;4879517;29;20088;-95
2021/09/15 12:15:02;;;;;;;9.48;4.05;;;25.70;99.90;;;;;;4863197;29;20033;-94
2021/09/15 12:17:28;;;;;;;6.13;3.45;;;25.70;99.90;;;;;;4867933;29;20517;-94
2021/09/15 12:19:55;;;;;;;6.90;3.13;;;25.40;99.90;;;;;;4863686;29;20072;-94
2021/09/15 12:22:26;;;;;;;6.43;3.20;;;25.60;99.90;;;;;;4847176;29;20022;-93
2021/09/15 12:25:12;;;;;;;7.05;3.45;;;25.70;99.90;;;;;;4873571;29;20033;-94
2021/09/15 12:27:41;;;;;;;10.98;3.22;;;25.70;99.90;;;;;;4863668;29;20020;-93
2021/09/15 12:30:07;;;;;;;9.05;3.20;;;25.90;99.90;;;;;;4864383;29;20021;-93
2021/09/15 12:32:39;;;;;;;8.73;3.50;;;25.80;99.90;;;;;;4875207;29;20058;-93
2021/09/15 12:35:33;;;;;;;8.35;3.72;;;25.60;99.90;;;;;;4860036;29;20125;-93
2021/09/15 12:38:07;;;;;;;8.80;4.25;;;25.50;99.90;;;;;;4851891;29;20034;-94
2021/09/15 12:40:34;;;;;;;10.88;4.50;;;25.10;99.90;;;;;;4859994;29;20029;-94
2021/09/15 12:43:06;;;;;;;8.20;4.38;;;24.80;99.90;;;;;;4862936;29;20029;-94
2021/09/15 12:45:33;;;;;;;10.98;4.78;;;24.80;99.90;;;;;;4863094;29;20033;-93
2021/09/15 12:48:00;;;;;;;9.98;4.88;;;24.60;99.90;;;;;;4862345;29;20483;-92
2021/09/15 12:50:32;;;;;;;10.25;4.03;;;24.70;99.90;;;;;;4852196;29;20061;-93
2021/09/15 12:53:08;;;;;;;7.43;4.53;;;24.70;99.90;;;;;;4876934;29;20039;-93